Observation data for Spur on 05/16/2018      Previous  Date       Current Mesonet Observations  Soil Data  Daily Summary Page  Observations in Plain Language
KSP1 160505Z 08012G17KT 18/11 A30 RMK A01 T01830108  RH  063%=      5-min Rain = 0
KSP1 160510Z 09011G17KT 19/11 A30 RMK A01 T01880105  RH  060%=      5-min Rain = 0
KSP1 160515Z 09011KT 19/10 A30 RMK A01 T01920104  RH  059%=      5-min Rain = 0
KSP1 160520Z 10010KT 19/10 A2999 RMK A01 T01930103  RH  058%=      5-min Rain = 0
KSP1 160525Z 10011KT 19/10 A2999 RMK A01 T01930103  RH  058%=      5-min Rain = 0
KSP1 160530Z 11009G14KT 20/10 A2999 RMK A01 T01950104  RH  058%=      5-min Rain = 0
KSP1 160535Z 11010G15KT 20/11 A2999 RMK A01 T01950105  RH  058%=      5-min Rain = 0
KSP1 160540Z 12006G11KT 19/11 A2999 RMK A01 T01940107  RH  059%=      5-min Rain = 0
KSP1 160545Z 13006KT 20/11 A2998 RMK A01 T01950107  RH  059%=      5-min Rain = 0
KSP1 160550Z 12007KT 20/11 A2998 RMK A01 T01950108  RH  059%=      5-min Rain = 0
KSP1 160555Z 11006KT 20/11 A2998 RMK A01 T01960108  RH  059%=      5-min Rain = 0
KSP1 160600Z 12006G12KT 20/11 A2998 RMK A01 T01960109  RH  059%=      5-min Rain = 0
KSP1 160605Z 11007KT 20/11 A2997 RMK A01 T01950110  RH  060%=      5-min Rain = 0
KSP1 160610Z 13006KT 19/11 A2997 RMK A01 T01940111  RH  061%=      5-min Rain = 0
KSP1 160615Z 13006G11KT 19/11 A2997 RMK A01 T01930113  RH  062%=      5-min Rain = 0
KSP1 160620Z 13007G12KT 19/11 A2996 RMK A01 T01920114  RH  063%=      5-min Rain = 0
KSP1 160625Z 13008KT 19/12 A2996 RMK A01 T01930116  RH  063%=      5-min Rain = 0
KSP1 160630Z 13007KT 19/12 A2995 RMK A01 T01940118  RH  064%=      5-min Rain = 0
KSP1 160635Z 13007G12KT 20/12 A2995 RMK A01 T01950119  RH  063%=      5-min Rain = 0
KSP1 160640Z 13007G12KT 20/12 A2995 RMK A01 T01990120  RH  063%=      5-min Rain = 0
KSP1 160645Z 13007KT 20/12 A2994 RMK A01 T02010120  RH  062%=      5-min Rain = 0
KSP1 160650Z 14006KT 20/12 A2994 RMK A01 T02010121  RH  062%=      5-min Rain = 0
KSP1 160655Z 14006KT 20/12 A2994 RMK A01 T02000122  RH  063%=      5-min Rain = 0
KSP1 160700Z 15006KT 20/12 A2994 RMK A01 T01990123  RH  064%=      5-min Rain = 0
KSP1 160705Z 17007KT 20/12 A2994 RMK A01 T01990123  RH  064%=      5-min Rain = 0
KSP1 160710Z 18005KT 20/12 A2994 RMK A01 T01990123  RH  064%=      5-min Rain = 0
KSP1 160715Z 19003KT 20/12 A2994 RMK A01 T01960122  RH  065%=      5-min Rain = 0
KSP1 160720Z 21003KT 19/12 A2994 RMK A01 T01930122  RH  066%=      5-min Rain = 0
KSP1 160725Z 20003KT 19/12 A2995 RMK A01 T01920122  RH  066%=      5-min Rain = 0
KSP1 160730Z 18003KT 19/12 A2994 RMK A01 T01910122  RH  067%=      5-min Rain = 0
KSP1 160735Z 18004KT 19/12 A2994 RMK A01 T01890122  RH  067%=      5-min Rain = 0
KSP1 160740Z 18004KT 19/12 A2994 RMK A01 T01870121  RH  068%=      5-min Rain = 0
KSP1 160745Z 19004KT 19/12 A2994 RMK A01 T01850121  RH  069%=      5-min Rain = 0
KSP1 160750Z 19002KT 18/12 A2995 RMK A01 T01820121  RH  070%=      5-min Rain = 0
KSP1 160755Z 07002KT 18/12 A2996 RMK A01 T01810121  RH  070%=      5-min Rain = 0
KSP1 160800Z 06007KT 18/12 A2997 RMK A01 T01820122  RH  070%=      5-min Rain = 0
KSP1 160805Z 07005KT 19/12 A2998 RMK A01 T01860123  RH  070%=      5-min Rain = 0
KSP1 160810Z 12002KT 19/12 A2999 RMK A01 T01860123  RH  070%=      5-min Rain = 0
KSP1 160815Z 07005KT 19/12 A2999 RMK A01 T01850124  RH  070%=      5-min Rain = 0
KSP1 160820Z 09003KT 18/12 A30 RMK A01 T01840124  RH  071%=      5-min Rain = 0
KSP1 160825Z 11003KT 19/13 A30 RMK A01 T01850125  RH  071%=      5-min Rain = 0
KSP1 160830Z 10004KT 19/13 A2999 RMK A01 T01850125  RH  071%=      5-min Rain = 0
KSP1 160835Z 10003KT 18/13 A2999 RMK A01 T01840125  RH  071%=      5-min Rain = 0
KSP1 160840Z 06002KT 18/12 A2999 RMK A01 T01830124  RH  071%=      5-min Rain = 0
KSP1 160845Z 05002KT 18/12 A2998 RMK A01 T01800123  RH  072%=      5-min Rain = 0
KSP1 160850Z 03004KT 18/12 A2999 RMK A01 T01780122  RH  073%=      5-min Rain = 0
KSP1 160855Z 02006KT 18/12 A2999 RMK A01 T01760123  RH  074%=      5-min Rain = 0
KSP1 160900Z 01005KT 18/12 A2999 RMK A01 T01750122  RH  074%=      5-min Rain = 0
KSP1 160905Z 02004KT 17/12 A2999 RMK A01 T01740121  RH  074%=      5-min Rain = 0
KSP1 160910Z 02003KT 17/12 A2999 RMK A01 T01740121  RH  074%=      5-min Rain = 0
KSP1 160915Z 03004KT 17/12 A2998 RMK A01 T01740121  RH  074%=      5-min Rain = 0
KSP1 160920Z 03003KT 17/12 A2998 RMK A01 T01730122  RH  075%=      5-min Rain = 0
KSP1 160925Z 04003KT 17/12 A2997 RMK A01 T01730122  RH  075%=      5-min Rain = 0
KSP1 160930Z 05002KT 17/12 A2997 RMK A01 T01710119  RH  074%=      5-min Rain = 0
KSP1 160935Z 04002KT 17/12 A2997 RMK A01 T01700120  RH  075%=      5-min Rain = 0
KSP1 160940Z 05005KT 17/12 A2997 RMK A01 T01690119  RH  075%=      5-min Rain = 0
KSP1 160945Z 05006KT 17/12 A2997 RMK A01 T01680119  RH  076%=      5-min Rain = 0
KSP1 160950Z 05004KT 17/12 A2997 RMK A01 T01670120  RH  077%=      5-min Rain = 0
KSP1 160955Z 03003KT 17/12 A2997 RMK A01 T01670121  RH  077%=      5-min Rain = 0
KSP1 161000Z 34003KT 17/12 A2997 RMK A01 T01660119  RH  077%=      5-min Rain = 0
KSP1 161005Z 30005KT 17/12 A2998 RMK A01 T01650120  RH  077%=      5-min Rain = 0
KSP1 161010Z 32003KT 17/12 A2997 RMK A01 T01670122  RH  077%=      5-min Rain = 0
KSP1 161015Z 32002KT 17/12 A2997 RMK A01 T01690123  RH  077%=      5-min Rain = 0
KSP1 161020Z 27003KT 17/12 A2998 RMK A01 T01710124  RH  076%=      5-min Rain = 0
KSP1 161025Z 31002KT 17/12 A2997 RMK A01 T01710123  RH  076%=      5-min Rain = 0
KSP1 161030Z 04002KT 17/13 A2997 RMK A01 T01720125  RH  077%=      5-min Rain = 0
KSP1 161035Z 30003KT 17/13 A2998 RMK A01 T01740125  RH  076%=      5-min Rain = 0
KSP1 161040Z 28003KT 18/13 A2999 RMK A01 T01760125  RH  075%=      5-min Rain = 0
KSP1 161045Z 22003KT 18/13 A2998 RMK A01 T01780127  RH  075%=      5-min Rain = 0
KSP1 161050Z 19007KT 18/13 A2997 RMK A01 T01780128  RH  075%=      5-min Rain = 0
KSP1 161055Z 17008KT 18/13 A2996 RMK A01 T01790133  RH  078%=      5-min Rain = 0
KSP1 161100Z 20008KT 18/14 A2996 RMK A01 T01760142  RH  084%=      5-min Rain = 0.1
KSP1 161105Z 20009KT 17/15 A2996 RMK A01 T01710147  RH  089%=      5-min Rain = 0.1
KSP1 161110Z 20009KT 17/15 A2997 RMK A01 T01710151  RH  092%=      5-min Rain = 0.01
KSP1 161115Z 15009KT 17/15 A2996 RMK A01 T01730153  RH  092%=      5-min Rain = 0
KSP1 161120Z 14009G14KT 18/15 A2997 RMK A01 T01770154  RH  091%=      5-min Rain = 0
KSP1 161125Z 05005KT 18/15 A2999 RMK A01 T01780154  RH  090%=      5-min Rain = 0
KSP1 161130Z 04006KT 18/15 A3001 RMK A01 T01760153  RH  090%=      5-min Rain = 0
KSP1 161135Z 11004KT 18/15 A3001 RMK A01 T01760153  RH  091%=      5-min Rain = 0
KSP1 161140Z 08004KT 18/15 A3002 RMK A01 T01780153  RH  090%=      5-min Rain = 0
KSP1 161145Z 07003KT 18/15 A3001 RMK A01 T01760152  RH  090%=      5-min Rain = 0
KSP1 161150Z 04005KT 18/15 A3002 RMK A01 T01760152  RH  089%=      5-min Rain = 0
KSP1 161155Z 05006KT 18/15 A3003 RMK A01 T01750149  RH  088%=      5-min Rain = 0
KSP1 161200Z 08007G12KT 17/15 A3003 RMK A01 T01740146  RH  088%=      5-min Rain = 0
KSP1 161205Z 03008KT 17/15 A3003 RMK A01 T01740146  RH  087%=      5-min Rain = 0
KSP1 161210Z 01007KT 17/15 A3004 RMK A01 T01740148  RH  089%=      5-min Rain = 0
KSP1 161215Z 07008KT 17/15 A3003 RMK A01 T01740148  RH  089%=      5-min Rain = 0
KSP1 161220Z 12005KT 17/15 A3003 RMK A01 T01740148  RH  088%=      5-min Rain = 0
KSP1 161225Z 09005KT 18/15 A3004 RMK A01 T01760147  RH  087%=      5-min Rain = 0
KSP1 161230Z 02007KT 18/15 A3005 RMK A01 T01770148  RH  087%=      5-min Rain = 0
KSP1 161235Z 03007KT 18/15 A3005 RMK A01 T01750148  RH  088%=      5-min Rain = 0
KSP1 161240Z 04005KT 17/15 A3005 RMK A01 T01740147  RH  088%=      5-min Rain = 0
KSP1 161245Z 01006KT 17/15 A3005 RMK A01 T01730146  RH  088%=      5-min Rain = 0
KSP1 161250Z 02008KT 17/15 A3004 RMK A01 T01730146  RH  088%=      5-min Rain = 0
KSP1 161255Z 03005KT 17/15 A3003 RMK A01 T01730146  RH  088%=      5-min Rain = 0
KSP1 161300Z 02004KT 17/15 A3003 RMK A01 T01740147  RH  088%=      5-min Rain = 0
KSP1 161305Z 03006KT 18/15 A3003 RMK A01 T01750148  RH  088%=      5-min Rain = 0
KSP1 161310Z 03005KT 18/15 A3003 RMK A01 T01750148  RH  088%=      5-min Rain = 0
KSP1 161315Z 06004KT 18/15 A3002 RMK A01 T01760149  RH  088%=      5-min Rain = 0
KSP1 161320Z 02003KT 18/15 A3002 RMK A01 T01760149  RH  088%=      5-min Rain = 0
KSP1 161325Z 02004KT 18/15 A3003 RMK A01 T01760149  RH  088%=      5-min Rain = 0
KSP1 161330Z 04002KT 18/15 A3003 RMK A01 T01760149  RH  088%=      5-min Rain = 0
KSP1 161335Z 09001KT 18/15 A3003 RMK A01 T01760150  RH  088%=      5-min Rain = 0
KSP1 161340Z 10001KT 18/15 A3003 RMK A01 T01780151  RH  088%=      5-min Rain = 0
KSP1 161345Z 16005KT 18/15 A3004 RMK A01 T01810153  RH  088%=      5-min Rain = 0
KSP1 161350Z 17006KT 18/15 A3005 RMK A01 T01810152  RH  087%=      5-min Rain = 0
KSP1 161355Z 15003KT 18/15 A3006 RMK A01 T01800151  RH  087%=      5-min Rain = 0
KSP1 161400Z 12003KT 18/15 A3006 RMK A01 T01810153  RH  087%=      5-min Rain = 0
KSP1 161405Z 17004KT 18/15 A3006 RMK A01 T01820151  RH  086%=      5-min Rain = 0
KSP1 161410Z 18004KT 18/15 A3005 RMK A01 T01830151  RH  085%=      5-min Rain = 0
KSP1 161415Z 17003KT 19/15 A3005 RMK A01 T01850148  RH  083%=      5-min Rain = 0
KSP1 161420Z 14003KT 19/15 A3005 RMK A01 T01880151  RH  083%=      5-min Rain = 0
KSP1 161425Z 14004KT 19/15 A3005 RMK A01 T01910149  RH  080%=      5-min Rain = 0
KSP1 161430Z 19004KT 19/15 A3005 RMK A01 T01930148  RH  079%=      5-min Rain = 0
KSP1 161435Z 18003KT 19/15 A3006 RMK A01 T01940148  RH  078%=      5-min Rain = 0
KSP1 161440Z 18003KT 20/15 A3006 RMK A01 T01970147  RH  076%=      5-min Rain = 0
KSP1 161445Z 21003KT 20/14 A3006 RMK A01 T01980144  RH  074%=      5-min Rain = 0
KSP1 161450Z 20001KT 20/14 A3006 RMK A01 T01990144  RH  074%=      5-min Rain = 0
KSP1 161455Z 22004KT 20/15 A3006 RMK A01 T02020147  RH  074%=      5-min Rain = 0
KSP1 161500Z 19003KT 20/14 A3005 RMK A01 T02030144  RH  072%=      5-min Rain = 0
KSP1 161505Z 18003KT 20/15 A3005 RMK A01 T02040146  RH  072%=      5-min Rain = 0
KSP1 161510Z 20004KT 21/15 A3005 RMK A01 T02060147  RH  072%=      5-min Rain = 0
KSP1 161515Z 19003KT 21/15 A3005 RMK A01 T02100148  RH  070%=      5-min Rain = 0
KSP1 161520Z 14003KT 21/15 A3006 RMK A01 T02120145  RH  068%=      5-min Rain = 0
KSP1 161525Z 08002KT 22/15 A3006 RMK A01 T02160145  RH  067%=      5-min Rain = 0
KSP1 161530Z 11002KT 22/14 A3006 RMK A01 T02160144  RH  066%=      5-min Rain = 0
KSP1 161535Z 08002G7KT 22/15 A3007 RMK A01 T02210148  RH  066%=      5-min Rain = 0
KSP1 161540Z 11006KT 22/14 A3007 RMK A01 T02210142  RH  064%=      5-min Rain = 0
KSP1 161545Z 10006KT 22/14 A3007 RMK A01 T02200143  RH  064%=      5-min Rain = 0
KSP1 161550Z 07005KT 22/15 A3007 RMK A01 T02220147  RH  065%=      5-min Rain = 0
KSP1 161555Z 06006KT 22/15 A3007 RMK A01 T02240151  RH  067%=      5-min Rain = 0
KSP1 161600Z 08005KT 23/15 A3007 RMK A01 T02250150  RH  066%=      5-min Rain = 0
KSP1 161605Z 05005KT 23/15 A3007 RMK A01 T02260149  RH  064%=      5-min Rain = 0
KSP1 161610Z 08005KT 23/14 A3007 RMK A01 T02270142  RH  061%=      5-min Rain = 0
KSP1 161615Z 07005KT 23/15 A3007 RMK A01 T02270148  RH  063%=      5-min Rain = 0
KSP1 161620Z 07006KT 23/14 A3007 RMK A01 T02290144  RH  061%=      5-min Rain = 0
KSP1 161625Z 08004KT 23/14 A3006 RMK A01 T02310141  RH  059%=      5-min Rain = 0
KSP1 161630Z 11005KT 23/14 A3006 RMK A01 T02340138  RH  057%=      5-min Rain = 0
KSP1 161635Z 10005KT 24/14 A3006 RMK A01 T02370136  RH  055%=      5-min Rain = 0
KSP1 161640Z 10004G9KT 24/13 A3006 RMK A01 T02360132  RH  054%=      5-min Rain = 0.01
KSP1 161645Z 13005KT 24/13 A3006 RMK A01 T02390130  RH  053%=      5-min Rain = 0
KSP1 161650Z 11008KT 24/13 A3006 RMK A01 T02410133  RH  053%=      5-min Rain = 0
KSP1 161655Z 10007G14KT 24/13 A3006 RMK A01 T02430133  RH  052%=      5-min Rain = 0
KSP1 161700Z 10008G14KT 24/13 A3006 RMK A01 T02420127  RH  051%=      5-min Rain = 0
KSP1 161705Z 10008KT 24/13 A3005 RMK A01 T02440126  RH  050%=      5-min Rain = 0
KSP1 161710Z 12007KT 24/13 A3005 RMK A01 T02420128  RH  051%=      5-min Rain = 0
KSP1 161715Z 10006KT 24/13 A3005 RMK A01 T02440133  RH  052%=      5-min Rain = 0
KSP1 161720Z 10006KT 25/13 A3005 RMK A01 T02460128  RH  050%=      5-min Rain = 0
KSP1 161725Z 09008KT 25/14 A3005 RMK A01 T02480137  RH  052%=      5-min Rain = 0
KSP1 161730Z 08007G13KT 25/14 A3005 RMK A01 T02480139  RH  053%=      5-min Rain = 0
KSP1 161735Z 07006KT 25/14 A3004 RMK A01 T02480137  RH  052%=      5-min Rain = 0
KSP1 161740Z 06007KT 25/13 A3004 RMK A01 T02450133  RH  052%=      5-min Rain = 0
KSP1 161745Z 07006G12KT 25/13 A3004 RMK A01 T02480130  RH  050%=      5-min Rain = 0
KSP1 161750Z 10007KT 25/13 A3004 RMK A01 T02520125  RH  047%=      5-min Rain = 0
KSP1 161755Z 10006G11KT 25/12 A3004 RMK A01 T02520120  RH  045%=      5-min Rain = 0
KSP1 161800Z 13007KT 26/12 A3004 RMK A01 T02550121  RH  045%=      5-min Rain = 0
KSP1 161805Z 12007KT 25/12 A3004 RMK A01 T02540120  RH  045%=      5-min Rain = 0
KSP1 161810Z 12008KT 26/11 A3003 RMK A01 T02560112  RH  042%=      5-min Rain = 0
KSP1 161815Z 13007KT 26/11 A3003 RMK A01 T02560109  RH  041%=      5-min Rain = 0
KSP1 161820Z 14007KT 26/11 A3003 RMK A01 T02590110  RH  041%=      5-min Rain = 0
KSP1 161825Z 14007KT 26/11 A3003 RMK A01 T02600107  RH  040%=      5-min Rain = 0
KSP1 161830Z 14007KT 26/11 A3003 RMK A01 T02610112  RH  041%=      5-min Rain = 0
KSP1 161835Z 11007KT 26/12 A3002 RMK A01 T02620116  RH  041%=      5-min Rain = 0
KSP1 161840Z 12007KT 26/11 A3002 RMK A01 T02630114  RH  041%=      5-min Rain = 0
KSP1 161845Z 12006KT 26/12 A3002 RMK A01 T02610116  RH  042%=      5-min Rain = 0
KSP1 161850Z 12007G13KT 26/12 A3002 RMK A01 T02630124  RH  044%=      5-min Rain = 0
KSP1 161855Z 13007G12KT 26/13 A3001 RMK A01 T02630125  RH  044%=      5-min Rain = 0
KSP1 161900Z 11007KT 27/13 A3001 RMK A01 T02660131  RH  045%=      5-min Rain = 0
KSP1 161905Z 11008KT 26/13 A3001 RMK A01 T02630128  RH  045%=      5-min Rain = 0
KSP1 161910Z 11009KT 26/13 A3001 RMK A01 T02610128  RH  045%=      5-min Rain = 0
KSP1 161915Z 11009KT 26/12 A3001 RMK A01 T02620124  RH  044%=      5-min Rain = 0
KSP1 161920Z 10010KT 27/13 A30 RMK A01 T02660125  RH  043%=      5-min Rain = 0
KSP1 161925Z 13007KT 27/12 A30 RMK A01 T02670123  RH  042%=      5-min Rain = 0
KSP1 161930Z 10007G13KT 27/12 A30 RMK A01 T02690121  RH  041%=      5-min Rain = 0
KSP1 161935Z 10008G15KT 27/12 A2999 RMK A01 T02700118  RH  040%=      5-min Rain = 0
KSP1 161940Z 14008G13KT 27/12 A2999 RMK A01 T02730120  RH  040%=      5-min Rain = 0
KSP1 161945Z 11009KT 27/12 A2998 RMK A01 T02720118  RH  040%=      5-min Rain = 0
KSP1 161950Z 14008KT 27/12 A2998 RMK A01 T02740122  RH  040%=      5-min Rain = 0
KSP1 161955Z 14008KT 28/12 A2998 RMK A01 T02770120  RH  039%=      5-min Rain = 0
KSP1 162000Z 11010KT 28/12 A2998 RMK A01 T02760121  RH  040%=      5-min Rain = 0
KSP1 162005Z 11006KT 28/12 A2997 RMK A01 T02750121  RH  040%=      5-min Rain = 0
KSP1 162010Z 13008KT 28/12 A2997 RMK A01 T02770120  RH  039%=      5-min Rain = 0
KSP1 162015Z 14008G13KT 28/12 A2997 RMK A01 T02810117  RH  038%=      5-min Rain = 0
KSP1 162020Z 11008KT 28/12 A2997 RMK A01 T02830118  RH  037%=      5-min Rain = 0
KSP1 162025Z 10008G15KT 29/11 A2997 RMK A01 T02850114  RH  036%=      5-min Rain = 0
KSP1 162030Z 12007KT 29/11 A2997 RMK A01 T02860114  RH  036%=      5-min Rain = 0
KSP1 162035Z 14006G12KT 29/11 A2997 RMK A01 T02870112  RH  035%=      5-min Rain = 0
KSP1 162040Z 15008G13KT 29/11 A2997 RMK A01 T02940107  RH  032%=      5-min Rain = 0
KSP1 162045Z 12006KT 30/11 A2997 RMK A01 T02980107  RH  032%=      5-min Rain = 0
KSP1 162050Z 10008G13KT 30/11 A2997 RMK A01 T02950111  RH  033%=      5-min Rain = 0
KSP1 162055Z 10007KT 29/11 A2997 RMK A01 T02940109  RH  033%=      5-min Rain = 0
KSP1 162100Z 12007KT 30/10 A2997 RMK A01 T02950103  RH  031%=      5-min Rain = 0
KSP1 162105Z 17006KT 30/10 A2996 RMK A01 T02980100  RH  030%=      5-min Rain = 0
KSP1 162110Z 19004G9KT 30/10 A2996 RMK A01 T02980098  RH  030%=      5-min Rain = 0
KSP1 162115Z 12008KT 30/09 A2996 RMK A01 T03000092  RH  028%=      5-min Rain = 0
KSP1 162120Z 13006G11KT 30/09 A2996 RMK A01 T03020093  RH  028%=      5-min Rain = 0
KSP1 162125Z 13006KT 30/09 A2995 RMK A01 T03020094  RH  028%=      5-min Rain = 0
KSP1 162130Z 14007G13KT 30/10 A2995 RMK A01 T03040095  RH  028%=      5-min Rain = 0
KSP1 162135Z 13006G14KT 30/10 A2995 RMK A01 T03030095  RH  028%=      5-min Rain = 0
KSP1 162140Z 16006KT 30/10 A2995 RMK A01 T03020096  RH  029%=      5-min Rain = 0
KSP1 162145Z 14006G12KT 30/10 A2995 RMK A01 T03040099  RH  029%=      5-min Rain = 0
KSP1 162150Z 12008KT 31/10 A2994 RMK A01 T03060099  RH  029%=      5-min Rain = 0
KSP1 162155Z 09006KT 31/10 A2994 RMK A01 T03050097  RH  028%=      5-min Rain = 0
KSP1 162200Z 10005KT 30/10 A2994 RMK A01 T03020096  RH  029%=      5-min Rain = 0
KSP1 162205Z 12005G10KT 30/09 A2994 RMK A01 T03030092  RH  028%=      5-min Rain = 0
KSP1 162210Z 13004KT 30/09 A2994 RMK A01 T03040092  RH  028%=      5-min Rain = 0
KSP1 162215Z 09006KT 31/09 A2993 RMK A01 T03070091  RH  027%=      5-min Rain = 0
KSP1 162220Z 09007G14KT 31/09 A2993 RMK A01 T03080090  RH  026%=      5-min Rain = 0
KSP1 162225Z 10007KT 31/09 A2993 RMK A01 T03070089  RH  026%=      5-min Rain = 0
KSP1 162230Z 11007G12KT 31/09 A2993 RMK A01 T03080085  RH  026%=      5-min Rain = 0
KSP1 162235Z 10007G12KT 31/09 A2993 RMK A01 T03090087  RH  026%=      5-min Rain = 0
KSP1 162240Z 11008KT 31/08 A2993 RMK A01 T03100084  RH  025%=      5-min Rain = 0
KSP1 162245Z 10009KT 31/09 A2993 RMK A01 T03080085  RH  026%=      5-min Rain = 0
KSP1 162250Z 10010G15KT 31/08 A2992 RMK A01 T03080083  RH  025%=      5-min Rain = 0
KSP1 162255Z 11009KT 31/08 A2992 RMK A01 T03070083  RH  025%=      5-min Rain = 0
KSP1 162300Z 11008G16KT 31/08 A2992 RMK A01 T03070083  RH  025%=      5-min Rain = 0
KSP1 162305Z 11007KT 31/09 A2992 RMK A01 T03100085  RH  026%=      5-min Rain = 0
KSP1 162310Z 09010KT 31/08 A2992 RMK A01 T03090083  RH  025%=      5-min Rain = 0
KSP1 162315Z 10009KT 31/08 A2992 RMK A01 T03090082  RH  025%=      5-min Rain = 0
KSP1 162320Z 10009KT 31/08 A2992 RMK A01 T03080082  RH  025%=      5-min Rain = 0
KSP1 162325Z 10010KT 31/08 A2992 RMK A01 T03090080  RH  025%=      5-min Rain = 0
KSP1 162330Z 12008KT 31/08 A2992 RMK A01 T03070080  RH  025%=      5-min Rain = 0
KSP1 162335Z 10009KT 31/08 A2992 RMK A01 T03070080  RH  025%=      5-min Rain = 0
KSP1 162340Z 09008KT 31/08 A2991 RMK A01 T03090080  RH  025%=      5-min Rain = 0
KSP1 162345Z 09010KT 31/08 A2991 RMK A01 T03080078  RH  025%=      5-min Rain = 0
KSP1 162350Z 10009KT 31/08 A2991 RMK A01 T03070079  RH  025%=      5-min Rain = 0
KSP1 162355Z 11007KT 31/08 A2991 RMK A01 T03080082  RH  025%=      5-min Rain = 0
KSP1 170000Z 11009G15KT 31/08 A2991 RMK A01 T03070082  RH  025%=      5-min Rain = 0
KSP1 170005Z 12007G12KT 31/08 A2991 RMK A01 T03070081  RH  025%=      5-min Rain = 0
KSP1 170010Z 11007KT 31/08 A2991 RMK A01 T03070082  RH  025%=      5-min Rain = 0
KSP1 170015Z 12007KT 31/08 A299 RMK A01 T03070081  RH  025%=      5-min Rain = 0
KSP1 170020Z 11007KT 31/08 A299 RMK A01 T03060081  RH  025%=      5-min Rain = 0
KSP1 170025Z 11006KT 31/08 A299 RMK A01 T03050083  RH  026%=      5-min Rain = 0
KSP1 170030Z 11008KT 31/08 A299 RMK A01 T03050081  RH  025%=      5-min Rain = 0
KSP1 170035Z 10008KT 31/08 A299 RMK A01 T03050080  RH  025%=      5-min Rain = 0
KSP1 170040Z 12007KT 30/08 A299 RMK A01 T03040081  RH  025%=      5-min Rain = 0
KSP1 170045Z 11007G12KT 30/08 A299 RMK A01 T03040080  RH  025%=      5-min Rain = 0
KSP1 170050Z 11006G11KT 30/08 A299 RMK A01 T03030081  RH  026%=      5-min Rain = 0
KSP1 170055Z 10010KT 30/08 A299 RMK A01 T03020078  RH  025%=      5-min Rain = 0
KSP1 170100Z 11009KT 30/08 A299 RMK A01 T03010079  RH  026%=      5-min Rain = 0
KSP1 170105Z 11008KT 30/08 A299 RMK A01 T02990081  RH  026%=      5-min Rain = 0
KSP1 170110Z 11009G14KT 30/08 A299 RMK A01 T02960079  RH  026%=      5-min Rain = 0
KSP1 170115Z 11009KT 29/08 A299 RMK A01 T02940079  RH  027%=      5-min Rain = 0
KSP1 170120Z 10010G17KT 29/09 A299 RMK A01 T02920086  RH  028%=      5-min Rain = 0
KSP1 170125Z 10010G16KT 29/10 A2991 RMK A01 T02860102  RH  033%=      5-min Rain = 0
KSP1 170130Z 10011G16KT 28/11 A2991 RMK A01 T02820107  RH  035%=      5-min Rain = 0
KSP1 170135Z 10010KT 28/11 A2991 RMK A01 T02790110  RH  036%=      5-min Rain = 0
KSP1 170140Z 09010G15KT 28/11 A2991 RMK A01 T02760112  RH  037%=      5-min Rain = 0
KSP1 170145Z 09010G15KT 27/11 A2991 RMK A01 T02740112  RH  038%=      5-min Rain = 0
KSP1 170150Z 09009KT 27/11 A2991 RMK A01 T02720113  RH  038%=      5-min Rain = 0
KSP1 170155Z 09010G16KT 27/11 A2992 RMK A01 T02700114  RH  039%=      5-min Rain = 0
KSP1 170200Z 10009KT 27/12 A2992 RMK A01 T02690115  RH  040%=      5-min Rain = 0
KSP1 170205Z 09009KT 27/12 A2992 RMK A01 T02670116  RH  040%=      5-min Rain = 0
KSP1 170210Z 09009KT 27/12 A2992 RMK A01 T02650116  RH  041%=      5-min Rain = 0
KSP1 170215Z 09009KT 26/12 A2992 RMK A01 T02640116  RH  041%=      5-min Rain = 0
KSP1 170220Z 10009KT 26/11 A2992 RMK A01 T02620114  RH  041%=      5-min Rain = 0
KSP1 170225Z 10009KT 26/11 A2992 RMK A01 T02600113  RH  041%=      5-min Rain = 0
KSP1 170230Z 10009KT 26/11 A2993 RMK A01 T02590112  RH  041%=      5-min Rain = 0
KSP1 170235Z 10008KT 26/11 A2993 RMK A01 T02570111  RH  041%=      5-min Rain = 0
KSP1 170240Z 10010KT 26/11 A2993 RMK A01 T02560107  RH  040%=      5-min Rain = 0
KSP1 170245Z 10009KT 26/11 A2993 RMK A01 T02550105  RH  040%=      5-min Rain = 0
KSP1 170250Z 10010G15KT 25/10 A2993 RMK A01 T02530103  RH  040%=      5-min Rain = 0
KSP1 170255Z 10008G14KT 25/10 A2993 RMK A01 T02520102  RH  040%=      5-min Rain = 0
KSP1 170300Z 10009KT 25/10 A2993 RMK A01 T02500102  RH  041%=      5-min Rain = 0
KSP1 170305Z 10009KT 25/10 A2993 RMK A01 T02480103  RH  041%=      5-min Rain = 0
KSP1 170310Z 10009KT 25/10 A2994 RMK A01 T02470103  RH  042%=      5-min Rain = 0
KSP1 170315Z 10009KT 25/10 A2994 RMK A01 T02460104  RH  042%=      5-min Rain = 0
KSP1 170320Z 10008KT 25/11 A2994 RMK A01 T02450106  RH  043%=      5-min Rain = 0
KSP1 170325Z 10008KT 24/11 A2994 RMK A01 T02430107  RH  044%=      5-min Rain = 0
KSP1 170330Z 10008KT 24/11 A2994 RMK A01 T02420109  RH  045%=      5-min Rain = 0
KSP1 170335Z 10008KT 24/11 A2994 RMK A01 T02400111  RH  046%=      5-min Rain = 0
KSP1 170340Z 09008KT 24/11 A2994 RMK A01 T02390113  RH  047%=      5-min Rain = 0
KSP1 170345Z 09007KT 24/11 A2995 RMK A01 T02380114  RH  048%=      5-min Rain = 0
KSP1 170350Z 09006KT 24/12 A2995 RMK A01 T02360116  RH  049%=      5-min Rain = 0
KSP1 170355Z 10006KT 24/12 A2995 RMK A01 T02350117  RH  049%=      5-min Rain = 0
KSP1 170400Z 10006KT 23/12 A2996 RMK A01 T02340118  RH  050%=      5-min Rain = 0
KSP1 170405Z 09006KT 23/12 A2995 RMK A01 T02330120  RH  051%=      5-min Rain = 0
KSP1 170410Z 09006KT 23/12 A2996 RMK A01 T02310121  RH  052%=      5-min Rain = 0
KSP1 170415Z 10006KT 23/12 A2996 RMK A01 T02300122  RH  052%=      5-min Rain = 0
KSP1 170420Z 10005KT 23/12 A2996 RMK A01 T02290123  RH  053%=      5-min Rain = 0
KSP1 170425Z 10005KT 23/12 A2996 RMK A01 T02280123  RH  054%=      5-min Rain = 0
KSP1 170430Z 10005KT 23/12 A2996 RMK A01 T02270124  RH  054%=      5-min Rain = 0
KSP1 170435Z 11003KT 23/13 A2996 RMK A01 T02260125  RH  055%=      5-min Rain = 0
KSP1 170440Z 12003KT 22/13 A2997 RMK A01 T02240125  RH  056%=      5-min Rain = 0
KSP1 170445Z 11004KT 22/13 A2996 RMK A01 T02230126  RH  056%=      5-min Rain = 0
KSP1 170450Z 13003KT 22/13 A2996 RMK A01 T02210127  RH  057%=      5-min Rain = 0
KSP1 170455Z 13004KT 22/13 A2996 RMK A01 T02180128  RH  059%=      5-min Rain = 0
KSP1 170500Z 14004KT 22/13 A2996 RMK A01 T02160129  RH  060%=      5-min Rain = 0

Page generated in 0.0141 seconds.